Time;durP1;ratioP1;P1;durP2;ratioP2;P2;SDS_P1;SDS_P2;PMS_P1;PMS_P2;Temp;Humidity;BMP_temperature;BMP_pressure;BME280_temperature;BME280_humidity;BME280_pressure;Samples;Min_cycle;Max_cycle;Signal;HPM_P1;HPM_P2
2023/10/03 00:01:38;;;;;;;12.38;7.22;;;;;;;21.88;49.55;97264.88;4827668;29;20221;-86
2023/10/03 00:04:10;;;;;;;12.80;7.43;;;;;;;21.73;50.06;97260.06;4833069;29;20648;-86
2023/10/03 00:06:36;;;;;;;11.23;7.55;;;;;;;21.70;49.90;97252.75;4804349;29;20626;-86
2023/10/03 00:09:02;;;;;;;12.35;8.05;;;;;;;21.71;49.96;97256.94;4803540;29;20377;-85
2023/10/03 00:11:28;;;;;;;11.45;7.43;;;;;;;21.65;49.80;97258.19;4819934;29;20212;-86
2023/10/03 00:13:53;;;;;;;11.13;7.15;;;;;;;21.68;49.57;97258.34;4819035;29;20292;-86
2023/10/03 00:16:20;;;;;;;12.95;7.95;;;;;;;21.64;49.34;97268.03;4818065;29;20532;-86
2023/10/03 00:18:46;;;;;;;12.65;7.28;;;;;;;21.69;49.65;97256.47;4803826;29;20213;-85
2023/10/03 00:21:12;;;;;;;11.27;6.88;;;;;;;21.63;49.35;97253.22;4849787;29;20083;-86
2023/10/03 00:23:37;;;;;;;11.60;6.85;;;;;;;21.62;49.13;97242.94;4804754;29;20269;-85
2023/10/03 00:26:04;;;;;;;12.77;7.05;;;;;;;21.62;49.53;97245.59;4817161;29;20213;-85
2023/10/03 00:28:30;;;;;;;11.05;6.47;;;;;;;21.60;49.64;97240.59;4830641;29;20652;-85
2023/10/03 00:30:56;;;;;;;10.90;7.30;;;;;;;21.63;49.22;97237.31;4833090;29;20576;-86
2023/10/03 00:33:25;;;;;;;10.25;7.40;;;;;;;21.63;49.53;97242.63;4818025;29;20170;-86
2023/10/03 00:35:51;;;;;;;10.25;7.10;;;;;;;21.53;49.66;97235.00;4833389;29;20281;-85
2023/10/03 00:38:17;;;;;;;10.02;6.80;;;;;;;21.63;49.37;97237.31;4803725;29;20210;-86
2023/10/03 00:40:53;;;;;;;10.50;6.82;;;;;;;21.81;48.84;97239.91;4833742;29;20170;-86
2023/10/03 00:43:18;;;;;;;9.68;6.45;;;;;;;21.45;49.00;97225.94;4823283;29;20208;-84
2023/10/03 00:45:45;;;;;;;8.63;6.18;;;;;;;21.73;48.46;97244.16;4830326;29;20245;-86
2023/10/03 00:48:12;;;;;;;8.23;5.75;;;;;;;21.80;48.84;97238.38;4838038;29;20711;-85
2023/10/03 00:50:38;;;;;;;10.30;6.07;;;;;;;21.98;48.02;97236.44;4834569;29;20711;-85
2023/10/03 00:53:08;;;;;;;9.27;6.05;;;;;;;22.01;47.81;97227.88;4809888;29;20166;-85
2023/10/03 00:55:35;;;;;;;7.35;5.75;;;;;;;21.86;48.21;97218.56;4799821;29;20221;-85
2023/10/03 00:58:19;;;;;;;9.35;6.25;;;;;;;21.71;47.97;97198.63;4829916;29;20241;-84
2023/10/03 01:00:51;;;;;;;7.22;5.35;;;;;;;21.95;48.23;97218.53;4803930;29;20765;-85
2023/10/03 01:03:36;;;;;;;9.32;6.35;;;;;;;22.07;47.55;97216.78;4848510;29;20319;-86
2023/10/03 01:06:10;;;;;;;9.93;5.82;;;;;;;22.02;48.03;97224.09;4817583;29;20181;-85
2023/10/03 01:08:41;;;;;;;10.18;6.93;;;;;;;21.73;48.68;97200.97;4830862;29;20241;-86
2023/10/03 01:11:13;;;;;;;9.43;5.80;;;;;;;21.65;47.86;97191.97;4832908;29;20599;-85
2023/10/03 01:13:39;;;;;;;8.68;5.78;;;;;;;21.71;48.82;97203.94;4834727;29;20233;-86
2023/10/03 01:16:05;;;;;;;9.88;5.60;;;;;;;21.75;48.52;97201.44;4818065;29;20393;-86
2023/10/03 01:18:32;;;;;;;8.13;5.78;;;;;;;21.77;48.33;97186.00;4805336;29;20162;-85
2023/10/03 01:21:04;;;;;;;7.95;5.53;;;;;;;21.76;47.94;97179.91;4805516;29;20352;-83
2023/10/03 01:23:35;;;;;;;8.25;5.43;;;;;;;21.87;48.44;97196.25;4819858;29;20261;-85
2023/10/03 01:26:02;;;;;;;8.50;5.82;;;;;;;21.91;47.56;97193.75;4819161;29;20566;-85
2023/10/03 01:28:27;;;;;;;7.80;5.72;;;;;;;21.97;47.27;97184.50;4818371;29;20185;-86
2023/10/03 01:30:53;;;;;;;6.55;4.97;;;;;;;22.05;47.66;97181.06;4851837;29;20221;-86
2023/10/03 01:33:18;;;;;;;7.82;5.57;;;;;;;21.92;47.41;97166.13;4821939;29;20194;-85
2023/10/03 01:35:43;;;;;;;9.35;5.43;;;;;;;21.84;47.23;97149.19;4821316;29;20339;-85
2023/10/03 01:38:09;;;;;;;8.77;4.78;;;;;;;21.87;47.67;97175.81;4825542;29;20163;-84
2023/10/03 01:40:35;;;;;;;6.50;5.18;;;;;;;22.08;47.30;97151.25;4819713;29;20609;-85
2023/10/03 01:43:01;;;;;;;6.95;5.15;;;;;;;22.15;46.58;97150.75;4823148;29;20750;-86
2023/10/03 01:45:27;;;;;;;9.82;5.53;;;;;;;22.00;47.10;97138.81;4841027;29;20286;-86
2023/10/03 01:47:54;;;;;;;8.25;5.13;;;;;;;22.07;47.00;97157.63;4833732;29;20306;-85
2023/10/03 01:50:23;;;;;;;7.30;5.63;;;;;;;22.11;46.88;97163.88;4851845;29;21031;-85
2023/10/03 01:52:49;;;;;;;8.80;5.13;;;;;;;22.21;46.55;97174.13;4818129;29;20171;-86
2023/10/03 01:55:17;;;;;;;10.32;6.40;;;;;;;22.30;46.30;97154.75;4817897;29;20269;-85
2023/10/03 01:57:43;;;;;;;7.68;4.88;;;;;;;22.19;46.86;97159.59;4818670;29;20180;-85
2023/10/03 02:00:26;;;;;;;7.22;5.20;;;;;;;22.19;46.80;97136.53;4835651;29;20288;-87
2023/10/03 02:02:56;;;;;;;8.00;5.15;;;;;;;22.34;46.45;97153.78;4850300;29;20276;-85
2023/10/03 02:05:24;;;;;;;6.40;5.20;;;;;;;22.13;47.03;97153.72;4836531;29;20201;-85
2023/10/03 02:08:01;;;;;;;6.32;4.80;;;;;;;22.33;46.91;97151.44;4838949;29;20235;-85
2023/10/03 02:10:28;;;;;;;5.45;4.68;;;;;;;22.30;46.91;97146.81;4806936;29;20315;-85
2023/10/03 02:12:56;;;;;;;7.47;5.57;;;;;;;22.29;46.63;97147.91;4844054;29;20345;-86
2023/10/03 02:15:23;;;;;;;7.55;5.25;;;;;;;22.29;46.49;97137.28;4803657;29;20219;-85
2023/10/03 02:17:54;;;;;;;6.00;5.40;;;;;;;22.28;46.98;97141.03;4801957;29;20464;-86
2023/10/03 02:20:20;;;;;;;6.50;4.82;;;;;;;22.17;46.82;97122.81;4825936;29;20295;-86
2023/10/03 02:22:55;;;;;;;6.50;5.30;;;;;;;22.22;46.97;97130.56;4809438;29;20346;-86
2023/10/03 02:25:22;;;;;;;;;;;;;;;22.53;45.97;97131.34;4838101;29;20214;-86
2023/10/03 02:27:49;;;;;;;7.72;5.00;;;;;;;22.20;46.19;97116.09;4824194;29;20414;-86
2023/10/03 02:30:19;;;;;;;7.15;5.60;;;;;;;22.42;46.33;97137.03;4821905;29;20175;-86
2023/10/03 02:32:44;;;;;;;6.93;4.72;;;;;;;22.40;46.38;97123.31;4810318;29;20631;-85
2023/10/03 02:35:10;;;;;;;6.32;5.00;;;;;;;22.26;46.67;97131.50;4824465;29;20260;-86
2023/10/03 02:37:37;;;;;;;6.78;5.07;;;;;;;22.30;46.45;97109.66;4837615;29;20201;-85
2023/10/03 02:40:07;;;;;;;6.93;4.93;;;;;;;22.45;46.33;97122.38;4826778;29;20715;-86
2023/10/03 02:42:37;;;;;;;6.75;5.38;;;;;;;22.40;46.81;97117.25;4808770;29;20214;-86
2023/10/03 02:45:03;;;;;;;7.05;5.03;;;;;;;22.38;46.82;97114.13;4837038;29;20197;-85
2023/10/03 02:47:29;;;;;;;7.63;5.07;;;;;;;22.33;47.17;97101.84;4806588;29;20526;-85
2023/10/03 02:49:55;;;;;;;6.20;5.03;;;;;;;22.38;46.73;97109.63;4839747;29;20198;-85
2023/10/03 02:52:21;;;;;;;6.75;5.10;;;;;;;22.33;47.02;97109.81;4840044;29;20639;-85
2023/10/03 02:54:48;;;;;;;7.55;5.45;;;;;;;22.40;46.86;97118.03;4822756;29;20237;-86
2023/10/03 02:57:15;;;;;;;6.22;4.70;;;;;;;22.38;46.75;97106.16;4835689;29;20270;-86
2023/10/03 02:59:44;;;;;;;7.20;5.20;;;;;;;22.40;46.75;97109.28;4834745;29;20281;-85
2023/10/03 03:02:14;;;;;;;7.32;6.00;;;;;;;22.47;46.64;97100.81;4837534;29;20212;-86
2023/10/03 03:04:41;;;;;;;6.82;5.20;;;;;;;22.31;47.39;97095.28;4839153;29;20212;-86
2023/10/03 03:07:07;;;;;;;6.72;5.13;;;;;;;22.46;46.47;97115.94;4838984;29;20163;-86
2023/10/03 03:09:36;;;;;;;6.40;5.15;;;;;;;22.45;47.15;97119.72;4827237;29;20213;-85
2023/10/03 03:12:06;;;;;;;6.32;5.38;;;;;;;22.41;47.15;97108.16;4822042;29;20365;-85
2023/10/03 03:14:31;;;;;;;8.23;5.10;;;;;;;22.39;47.01;97105.06;4836392;29;20721;-86
2023/10/03 03:16:57;;;;;;;6.43;5.60;;;;;;;22.36;47.12;97101.19;4837935;29;20213;-85
2023/10/03 03:19:23;;;;;;;6.65;5.00;;;;;;;22.31;46.99;97096.09;4838160;29;20380;-85
2023/10/03 03:21:50;;;;;;;6.22;5.30;;;;;;;22.35;47.18;97114.78;4838272;29;20205;-86
2023/10/03 03:24:17;;;;;;;7.22;5.38;;;;;;;22.26;47.10;97097.03;4838457;29;20216;-86
2023/10/03 03:26:47;;;;;;;5.75;5.15;;;;;;;22.35;47.69;97115.56;4840246;29;20266;-85
2023/10/03 03:29:31;;;;;;;9.30;5.30;;;;;;;22.36;47.33;97109.16;4823093;29;20257;-86
2023/10/03 03:31:56;;;;;;;6.55;5.15;;;;;;;22.44;47.72;97107.53;4830398;29;20240;-86
2023/10/03 03:34:21;;;;;;;7.18;5.47;;;;;;;22.32;47.11;97099.50;4835094;29;20628;-86
2023/10/03 03:36:49;;;;;;;5.97;5.10;;;;;;;22.36;47.42;97111.81;4852738;29;20274;-86
2023/10/03 03:39:16;;;;;;;7.47;4.97;;;;;;;22.32;47.63;97105.59;4854371;29;20586;-85
2023/10/03 03:41:43;;;;;;;5.72;5.03;;;;;;;22.30;47.97;97096.41;4834997;29;20363;-86
2023/10/03 03:44:11;;;;;;;6.10;5.50;;;;;;;22.15;47.78;97084.47;4824889;29;20102;-85
2023/10/03 03:46:37;;;;;;;5.50;4.95;;;;;;;22.36;47.65;97103.84;4846648;29;20924;-84
2023/10/03 03:49:04;;;;;;;6.40;5.00;;;;;;;22.26;48.10;97099.66;4850309;29;20217;-86
2023/10/03 03:51:30;;;;;;;7.03;4.70;;;;;;;22.05;48.39;97101.50;4836962;29;20644;-86
2023/10/03 03:53:56;;;;;;;7.65;5.32;;;;;;;22.02;48.58;97075.63;4821498;29;20182;-86
2023/10/03 03:56:21;;;;;;;7.32;5.25;;;;;;;22.19;48.07;97094.09;4819987;29;20268;-85
2023/10/03 03:58:48;;;;;;;5.95;5.38;;;;;;;22.26;48.09;97091.72;4836708;29;20193;-85
2023/10/03 04:01:19;;;;;;;5.88;5.28;;;;;;;22.28;48.18;97099.38;4803651;29;20200;-85
2023/10/03 04:03:53;;;;;;;6.88;4.82;;;;;;;22.22;48.08;97101.41;4834424;29;20261;-86
2023/10/03 04:06:21;;;;;;;6.78;5.50;;;;;;;22.22;48.11;97111.25;4835382;29;20296;-86
2023/10/03 04:08:48;;;;;;;7.75;5.40;;;;;;;22.22;48.58;97101.41;4801066;29;20212;-85
2023/10/03 04:11:14;;;;;;;6.95;5.75;;;;;;;22.10;48.13;97082.75;4818669;29;20205;-85
2023/10/03 04:13:49;;;;;;;6.63;5.13;;;;;;;22.21;48.08;97096.44;4817737;29;20197;-84
2023/10/03 04:16:17;;;;;;;7.47;5.40;;;;;;;22.22;48.32;97090.03;4823682;29;20634;-86
2023/10/03 04:18:44;;;;;;;7.18;5.50;;;;;;;22.32;47.88;97097.63;4819777;29;20355;-86
2023/10/03 04:21:10;;;;;;;7.03;5.15;;;;;;;22.22;48.50;97090.78;4835587;29;20599;-86
2023/10/03 04:23:36;;;;;;;6.88;5.03;;;;;;;22.30;48.21;97085.81;4813200;29;20260;-86
2023/10/03 04:26:02;;;;;;;8.07;5.40;;;;;;;22.18;48.48;97079.28;4819590;29;20222;-85
2023/10/03 04:28:28;;;;;;;6.13;4.90;;;;;;;22.20;48.42;97086.91;4814710;29;20189;-86
2023/10/03 04:30:53;;;;;;;7.20;5.10;;;;;;;22.12;48.67;97090.41;4822753;29;20208;-86
2023/10/03 04:33:20;;;;;;;6.97;4.93;;;;;;;22.00;48.81;97072.53;4802365;29;20201;-86
2023/10/03 04:35:49;;;;;;;6.53;5.78;;;;;;;22.00;48.91;97075.19;4818108;29;20353;-85
2023/10/03 04:38:16;;;;;;;7.60;5.32;;;;;;;21.98;49.34;97082.69;4834498;29;20605;-86
2023/10/03 04:40:42;;;;;;;7.82;5.43;;;;;;;21.94;49.13;97073.81;4819044;29;20197;-86
2023/10/03 04:43:11;;;;;;;8.10;5.60;;;;;;;21.93;49.33;97077.56;4835119;29;20601;-86
2023/10/03 04:45:37;;;;;;;6.88;5.57;;;;;;;21.91;49.71;97091.13;4800840;29;20193;-86
2023/10/03 04:48:03;;;;;;;8.80;5.25;;;;;;;21.70;49.53;97065.34;4817914;29;20373;-86
2023/10/03 04:50:29;;;;;;;5.65;4.95;;;;;;;21.80;49.80;97074.81;4802023;29;20189;-86
2023/10/03 04:52:54;;;;;;;6.63;5.40;;;;;;;21.80;49.75;97079.34;4849351;29;20197;-86
2023/10/03 04:55:22;;;;;;;7.07;5.10;;;;;;;21.78;49.97;97087.63;4834117;29;20460;-86
2023/10/03 04:57:50;;;;;;;6.07;5.03;;;;;;;21.82;49.74;97096.47;4839936;29;20173;-86
2023/10/03 05:00:18;;;;;;;6.10;5.38;;;;;;;21.86;49.61;97092.09;4831878;29;20585;-85
2023/10/03 05:02:46;;;;;;;6.13;5.50;;;;;;;21.78;49.90;97092.94;4833715;29;20272;-85
2023/10/03 05:05:22;;;;;;;5.88;5.28;;;;;;;21.91;50.17;97095.66;4833621;29;20208;-85
2023/10/03 05:07:52;;;;;;;6.50;4.85;;;;;;;21.81;50.37;97094.91;4818211;29;20760;-86
2023/10/03 05:10:22;;;;;;;6.53;5.13;;;;;;;21.85;49.86;97095.84;4833235;29;20680;-83
2023/10/03 05:12:48;;;;;;;6.72;5.43;;;;;;;21.74;50.53;97097.28;4821190;29;20209;-85
2023/10/03 05:15:17;;;;;;;7.07;5.38;;;;;;;21.88;49.77;97081.97;4833347;29;20170;-86
2023/10/03 05:17:47;;;;;;;6.28;5.13;;;;;;;21.96;49.80;97082.22;4819221;29;20277;-85
2023/10/03 05:20:13;;;;;;;7.55;5.55;;;;;;;21.89;50.03;97091.44;4816398;29;20633;-86
2023/10/03 05:22:40;;;;;;;6.22;5.10;;;;;;;21.83;50.35;97089.31;4830107;29;20422;-86
2023/10/03 05:25:11;;;;;;;8.18;5.30;;;;;;;21.78;50.04;97092.13;4831178;29;20217;-86
2023/10/03 05:27:37;;;;;;;6.43;5.30;;;;;;;21.72;50.95;97099.50;4818669;29;20213;-85
2023/10/03 05:30:05;;;;;;;5.47;4.82;;;;;;;21.89;50.14;97104.72;4794403;29;20107;-86
2023/10/03 05:32:31;;;;;;;6.43;5.20;;;;;;;21.89;49.93;97094.09;4826505;29;20224;-86
2023/10/03 05:34:58;;;;;;;6.57;5.97;;;;;;;21.91;50.26;97098.31;4836765;29;20166;-86
2023/10/03 05:37:25;;;;;;;6.38;5.03;;;;;;;21.76;50.37;97081.84;4833732;29;20590;-86
2023/10/03 05:39:50;;;;;;;6.95;5.57;;;;;;;21.70;50.64;97091.84;4849775;29;20269;-84
2023/10/03 05:42:17;;;;;;;8.10;5.30;;;;;;;21.59;50.58;97095.97;4818416;29;20606;-86
2023/10/03 05:44:45;;;;;;;6.22;5.40;;;;;;;21.75;50.52;97114.00;4832082;29;20285;-86
2023/10/03 05:47:11;;;;;;;7.40;5.05;;;;;;;21.63;51.21;97096.13;4826457;29;20174;-85
2023/10/03 05:49:36;;;;;;;5.97;5.15;;;;;;;21.60;50.85;97092.22;4820560;29;20197;-85
2023/10/03 05:52:02;;;;;;;7.07;5.35;;;;;;;21.84;50.72;97114.72;4833220;29;20223;-85
2023/10/03 05:54:30;;;;;;;7.25;5.22;;;;;;;21.78;51.28;97119.44;4844472;29;20638;-85
2023/10/03 05:56:55;;;;;;;7.00;5.70;;;;;;;21.70;51.44;97112.28;4804733;29;20249;-84
2023/10/03 05:59:21;;;;;;;6.78;5.13;;;;;;;21.73;50.56;97108.22;4852964;29;20273;-85
2023/10/03 06:01:50;;;;;;;7.50;5.65;;;;;;;21.80;50.93;97121.78;4824574;29;20264;-86
2023/10/03 06:04:16;;;;;;;8.35;5.07;;;;;;;21.85;51.06;97130.31;4837501;29;20208;-85
2023/10/03 06:06:43;;;;;;;6.57;5.03;;;;;;;21.86;50.60;97137.16;4838993;29;20192;-84
2023/10/03 06:09:11;;;;;;;7.35;5.15;;;;;;;21.80;50.88;97127.84;4854345;29;20254;-83
2023/10/03 06:11:37;;;;;;;7.28;5.00;;;;;;;21.68;50.65;97117.91;4838796;29;20162;-85
2023/10/03 06:14:03;;;;;;;7.47;5.25;;;;;;;21.72;51.25;97117.28;4837356;29;20146;-85
2023/10/03 06:16:30;;;;;;;6.65;4.95;;;;;;;21.62;51.45;97124.47;4836835;29;20198;-86
2023/10/03 06:18:56;;;;;;;7.45;5.22;;;;;;;21.67;51.46;97128.81;4821849;29;20213;-85
2023/10/03 06:21:23;;;;;;;5.97;4.65;;;;;;;21.54;51.68;97114.69;4836489;29;20249;-85
2023/10/03 06:23:50;;;;;;;6.55;4.88;;;;;;;21.61;51.67;97135.38;4836771;29;20757;-86
2023/10/03 06:26:20;;;;;;;7.47;5.50;;;;;;;21.40;51.91;97125.44;4820293;29;20360;-86
2023/10/03 06:28:48;;;;;;;6.57;4.88;;;;;;;21.61;51.83;97132.72;4829369;29;20051;-86
2023/10/03 06:31:13;;;;;;;7.07;5.30;;;;;;;21.68;52.15;97138.34;4822924;29;20252;-86
2023/10/03 06:33:39;;;;;;;6.90;5.03;;;;;;;21.64;52.19;97126.78;4843470;29;20292;-84
2023/10/03 06:36:06;;;;;;;7.10;5.47;;;;;;;21.80;51.47;97111.16;4820591;29;20193;-86
2023/10/03 06:38:32;;;;;;;6.72;5.50;;;;;;;21.81;51.79;97112.69;4802948;29;20265;-86
2023/10/03 06:40:58;;;;;;;6.22;4.97;;;;;;;21.80;51.21;97103.97;4827573;29;20197;-86
2023/10/03 06:43:23;;;;;;;6.70;4.85;;;;;;;22.01;51.15;97133.19;4834325;29;20213;-86
2023/10/03 06:45:48;;;;;;;9.43;5.43;;;;;;;21.99;51.63;97132.75;4838504;29;20358;-86
2023/10/03 06:48:14;;;;;;;6.72;5.25;;;;;;;22.23;51.39;97134.03;4839596;29;20273;-87
2023/10/03 06:53:35;;;;;;;7.22;5.53;;;;;;;22.41;50.29;97108.97;4823683;29;20247;-86
2023/10/03 06:56:00;;;;;;;7.38;5.07;;;;;;;22.56;50.49;97136.78;4829099;29;20417;-84
2023/10/03 06:58:27;;;;;;;8.18;5.40;;;;;;;22.55;50.26;97121.97;4844551;29;20671;-85
2023/10/03 07:00:55;;;;;;;6.78;5.22;;;;;;;22.66;50.06;97138.28;4853189;29;20269;-87
2023/10/03 07:03:22;;;;;;;9.57;5.50;;;;;;;22.77;50.16;97136.81;4837931;29;20292;-85
2023/10/03 07:05:47;;;;;;;6.43;4.72;;;;;;;22.80;50.16;97124.75;4857170;29;20584;-85
2023/10/03 07:08:13;;;;;;;5.78;4.78;;;;;;;22.74;50.34;97118.06;4837310;29;20110;-85
2023/10/03 07:10:41;;;;;;;7.60;5.60;;;;;;;22.89;49.93;97148.56;4853458;29;20157;-84
2023/10/03 07:13:07;;;;;;;6.95;4.93;;;;;;;22.91;50.33;97149.81;4823607;29;20414;-85
2023/10/03 07:15:33;;;;;;;7.35;4.80;;;;;;;22.76;50.48;97143.19;4837652;29;20189;-86
2023/10/03 07:17:58;;;;;;;8.77;5.38;;;;;;;22.55;50.54;97124.63;4824519;29;20291;-87
2023/10/03 07:20:24;;;;;;;5.80;4.75;;;;;;;22.71;50.71;97139.97;4838329;29;20253;-85
2023/10/03 07:22:49;;;;;;;6.47;5.22;;;;;;;22.71;50.48;97126.69;4814690;29;20189;-85
2023/10/03 07:25:16;;;;;;;6.93;5.22;;;;;;;22.62;50.61;97119.56;4848433;29;20292;-85
2023/10/03 07:27:41;;;;;;;6.88;5.25;;;;;;;22.90;50.43;97134.97;4819306;29;20288;-86
2023/10/03 07:30:08;;;;;;;8.30;6.03;;;;;;;22.94;50.40;97135.84;4817530;29;20748;-86
2023/10/03 07:32:34;;;;;;;6.25;5.25;;;;;;;23.20;50.28;97158.78;4824175;29;20749;-86
2023/10/03 07:34:59;;;;;;;5.70;5.15;;;;;;;23.31;50.52;97151.19;4840742;29;20270;-85
2023/10/03 07:37:25;;;;;;;7.43;5.18;;;;;;;23.39;49.77;97147.66;4810224;29;20216;-84
2023/10/03 07:39:51;;;;;;;7.25;5.30;;;;;;;23.49;49.72;97149.13;4842320;29;20440;-86
2023/10/03 07:42:17;;;;;;;7.25;5.00;;;;;;;23.50;49.12;97122.22;4825252;29;20095;-86
2023/10/03 07:44:44;;;;;;;5.65;5.07;;;;;;;23.98;49.34;97154.53;4837134;29;20478;-86
2023/10/03 07:47:09;;;;;;;6.75;5.30;;;;;;;23.89;48.63;97148.53;4839369;29;20412;-85
2023/10/03 07:49:34;;;;;;;5.85;5.10;;;;;;;24.09;48.18;97137.03;4808252;29;20289;-85
2023/10/03 07:52:00;;;;;;;7.57;5.60;;;;;;;24.30;48.37;97154.75;4825863;29;20512;-87
2023/10/03 07:54:31;;;;;;;7.60;5.03;;;;;;;24.16;47.68;97147.06;4825583;29;20202;-89
2023/10/03 07:57:04;;;;;;;7.55;5.60;;;;;;;23.76;49.34;97147.72;4814642;29;20204;-85
2023/10/03 07:59:30;;;;;;;6.53;5.88;;;;;;;23.82;48.92;97161.59;4855428;29;20281;-85
2023/10/03 08:01:56;;;;;;;5.93;4.82;;;;;;;23.87;49.02;97154.19;4822760;29;20174;-86
2023/10/03 08:04:23;;;;;;;8.48;5.38;;;;;;;23.61;49.88;97162.41;4824367;29;20310;-86
2023/10/03 08:06:49;;;;;;;6.72;5.22;;;;;;;23.92;48.84;97167.28;4810000;29;20178;-86
2023/10/03 08:09:15;;;;;;;6.95;5.18;;;;;;;23.93;48.76;97134.22;4846495;29;20264;-84
2023/10/03 08:11:40;;;;;;;7.18;5.53;;;;;;;24.16;48.83;97178.22;4824176;29;20264;-87
2023/10/03 08:14:17;;;;;;;6.03;5.43;;;;;;;24.24;48.65;97172.03;4816217;29;20208;-85
2023/10/03 08:16:46;;;;;;;6.10;5.10;;;;;;;24.27;48.70;97158.06;4822396;29;20201;-86
2023/10/03 08:19:25;;;;;;;7.22;5.75;;;;;;;24.41;49.50;97182.44;4822324;29;20249;-84
2023/10/03 08:21:55;;;;;;;6.47;5.35;;;;;;;24.33;48.54;97180.66;4826725;29;20040;-86
2023/10/03 08:24:28;;;;;;;7.35;5.50;;;;;;;24.56;48.84;97166.94;4834075;29;20213;-86
2023/10/03 08:26:58;;;;;;;6.57;5.75;;;;;;;24.57;47.77;97187.84;4823146;29;20239;-86
2023/10/03 08:29:24;;;;;;;8.02;5.13;;;;;;;24.31;48.35;97185.53;4839175;29;20186;-87
2023/10/03 08:31:58;;;;;;;7.10;5.05;;;;;;;24.45;48.28;97201.97;4840640;29;20197;-83
2023/10/03 08:34:28;;;;;;;7.17;5.30;;;;;;;24.41;48.99;97193.06;4821179;29;20334;-87
2023/10/03 08:36:54;;;;;;;6.22;5.43;;;;;;;24.56;48.19;97218.28;4820045;29;20206;-86
2023/10/03 08:39:23;;;;;;;7.10;5.70;;;;;;;24.65;48.37;97221.56;4840483;29;20170;-86
2023/10/03 08:42:17;;;;;;;7.00;5.32;;;;;;;24.45;48.82;97223.25;4835997;29;20031;-86
2023/10/03 08:44:53;;;;;;;6.03;5.43;;;;;;;24.17;49.12;97206.41;4843655;29;20102;-86
2023/10/03 08:47:31;;;;;;;8.18;6.07;;;;;;;24.20;49.64;97203.84;4847264;29;20198;-86
2023/10/03 08:50:10;;;;;;;7.82;5.95;;;;;;;24.39;48.98;97221.91;4844905;29;20257;-86
2023/10/03 08:52:49;;;;;;;6.35;5.40;;;;;;;24.10;49.08;97222.91;4822669;29;20202;-85
2023/10/03 08:55:19;;;;;;;7.72;5.80;;;;;;;24.37;48.84;97224.13;4833890;29;20683;-86
2023/10/03 08:57:49;;;;;;;6.55;5.55;;;;;;;24.51;49.37;97213.16;4865529;29;20245;-87
2023/10/03 09:00:25;;;;;;;6.57;5.45;;;;;;;24.64;48.33;97206.72;4809474;29;20269;-86
2023/10/03 09:02:51;;;;;;;8.50;5.82;;;;;;;24.69;49.71;97208.38;4838776;29;20291;-86
2023/10/03 09:05:20;;;;;;;6.80;5.47;;;;;;;24.74;49.00;97199.38;4822540;29;20653;-84
2023/10/03 09:07:50;;;;;;;8.77;5.90;;;;;;;25.02;48.41;97204.75;4837243;29;20261;-86
2023/10/03 09:10:22;;;;;;;6.97;6.00;;;;;;;24.94;48.28;97203.00;4822679;29;20256;-86
2023/10/03 09:12:52;;;;;;;7.38;5.70;;;;;;;25.19;47.35;97193.81;4824926;29;20217;-87
2023/10/03 09:15:19;;;;;;;6.32;5.35;;;;;;;25.10;47.52;97192.38;4838354;29;20227;-87
2023/10/03 09:17:50;;;;;;;6.68;5.90;;;;;;;24.94;47.87;97214.41;4838524;29;20218;-85
2023/10/03 09:20:31;;;;;;;9.10;5.93;;;;;;;24.74;49.33;97221.44;4822765;29;20178;-86
2023/10/03 09:23:05;;;;;;;8.13;5.57;;;;;;;24.55;48.25;97197.31;4826516;29;20648;-86
2023/10/03 09:25:32;;;;;;;8.73;6.55;;;;;;;24.68;48.45;97233.47;4844507;29;20443;-87
2023/10/03 09:28:05;;;;;;;11.20;6.10;;;;;;;24.53;48.55;97202.16;4841331;29;20217;-85
2023/10/03 09:30:37;;;;;;;8.05;5.68;;;;;;;24.64;49.28;97221.91;4818876;29;20163;-86
2023/10/03 09:33:08;;;;;;;7.22;5.70;;;;;;;24.81;48.41;97231.53;4824686;29;20214;-87
2023/10/03 09:35:34;;;;;;;8.80;5.85;;;;;;;24.72;47.94;97231.66;4850695;29;20079;-87
2023/10/03 09:38:05;;;;;;;7.80;6.13;;;;;;;24.70;49.06;97209.94;4846222;29;20268;-87
2023/10/03 09:40:51;;;;;;;8.82;6.45;;;;;;;24.79;49.46;97229.19;4829141;29;20402;-87
2023/10/03 09:43:27;;;;;;;9.23;6.10;;;;;;;24.79;48.25;97231.88;4828318;29;20213;-85
2023/10/03 09:45:56;;;;;;;9.65;6.30;;;;;;;24.90;48.30;97240.19;4856848;29;20250;-87
2023/10/03 09:48:24;;;;;;;7.43;6.13;;;;;;;24.86;48.36;97228.63;4863327;29;20246;-85
2023/10/03 09:50:53;;;;;;;7.95;6.28;;;;;;;24.96;48.86;97233.50;4813651;29;20696;-85
2023/10/03 09:53:19;;;;;;;6.22;5.38;;;;;;;24.77;48.46;97231.44;4845097;29;20221;-86
2023/10/03 09:55:49;;;;;;;6.72;5.85;;;;;;;24.70;48.80;97231.22;4832413;29;20633;-83
2023/10/03 09:58:24;;;;;;;8.02;6.05;;;;;;;24.82;48.16;97243.75;4845853;29;20208;-86
2023/10/03 10:00:52;;;;;;;8.05;5.88;;;;;;;24.79;48.26;97233.75;4844922;29;20193;-84
2023/10/03 10:03:26;;;;;;;8.05;5.80;;;;;;;24.90;47.94;97248.19;4832375;29;20772;-87
2023/10/03 10:06:12;;;;;;;8.40;5.93;;;;;;;24.86;48.78;97253.41;4858859;29;20102;-85
2023/10/03 10:08:58;;;;;;;7.07;5.25;;;;;;;24.83;48.50;97231.97;4848709;29;20102;-85
2023/10/03 10:11:27;;;;;;;7.88;6.20;;;;;;;24.80;50.06;97240.66;4835777;29;20236;-86
2023/10/03 10:14:16;;;;;;;6.45;5.65;;;;;;;25.08;48.80;97232.69;4840434;29;20180;-85
2023/10/03 10:17:03;;;;;;;6.80;5.65;;;;;;;25.14;48.69;97231.34;4819236;29;20201;-86
2023/10/03 10:20:08;;;;;;;7.55;5.88;;;;;;;25.42;48.03;97235.94;4821586;29;20304;-87
2023/10/03 10:22:58;;;;;;;8.85;6.03;;;;;;;25.87;47.73;97232.13;4809583;29;20187;-88
2023/10/03 10:25:27;;;;;;;8.13;5.75;;;;;;;26.21;46.38;97221.16;4842698;29;20751;-86
2023/10/03 10:28:06;;;;;;;7.18;5.43;;;;;;;26.67;44.47;97219.53;4826787;29;20193;-87
2023/10/03 10:30:32;;;;;;;7.72;5.43;;;;;;;26.81;44.59;97224.41;4847214;29;20216;-87
2023/10/03 10:33:20;;;;;;;6.35;5.45;;;;;;;27.13;44.45;97223.50;4829138;29;20598;-84
2023/10/03 10:35:50;;;;;;;7.22;5.32;;;;;;;27.12;44.45;97221.97;4842382;29;20260;-87
2023/10/03 10:38:15;;;;;;;7.50;5.47;;;;;;;27.14;44.20;97220.47;4811694;29;20064;-85
2023/10/03 10:41:17;;;;;;;8.48;5.25;;;;;;;27.05;44.38;97218.03;4846695;29;20174;-85
2023/10/03 10:44:16;;;;;;;8.93;5.90;;;;;;;27.26;44.51;97228.38;4827113;29;20207;-86
2023/10/03 10:46:52;;;;;;;8.05;5.18;;;;;;;27.31;43.34;97229.25;4840284;29;20653;-87
2023/10/03 10:49:37;;;;;;;8.00;5.57;;;;;;;27.23;43.82;97222.94;4816089;29;20385;-84
2023/10/03 10:52:10;;;;;;;9.77;5.07;;;;;;;27.28;43.92;97233.38;4861770;29;20228;-84
2023/10/03 10:54:42;;;;;;;8.63;5.47;;;;;;;26.96;44.34;97206.00;4831403;29;20214;-87
2023/10/03 10:57:10;;;;;;;7.47;5.50;;;;;;;27.06;43.08;97214.25;4824693;29;20231;-84
2023/10/03 10:59:39;;;;;;;5.55;4.80;;;;;;;27.14;44.45;97233.09;4810227;29;20270;-87
2023/10/03 11:02:15;;;;;;;8.43;5.53;;;;;;;27.35;42.64;97204.13;4816841;29;20270;-83
2023/10/03 11:04:40;;;;;;;5.75;4.88;;;;;;;27.34;43.58;97229.31;4841387;29;20754;-84
2023/10/03 11:07:06;;;;;;;7.40;5.13;;;;;;;27.31;43.09;97216.63;4855202;29;20264;-83
2023/10/03 11:09:36;;;;;;;6.18;5.25;;;;;;;27.39;44.42;97210.31;4852889;29;20668;-83
2023/10/03 11:12:06;;;;;;;6.80;5.50;;;;;;;27.60;42.48;97211.81;4830547;29;20304;-83
2023/10/03 11:14:33;;;;;;;7.53;5.25;;;;;;;27.88;41.94;97208.88;4814707;29;20209;-85
2023/10/03 11:16:59;;;;;;;6.28;5.30;;;;;;;28.17;40.53;97220.03;4826069;29;20548;-83
2023/10/03 11:19:31;;;;;;;5.65;4.90;;;;;;;28.26;41.61;97203.72;4844825;29;20701;-85
2023/10/03 11:21:57;;;;;;;7.40;4.97;;;;;;;28.49;40.92;97215.16;4843429;29;20640;-83
2023/10/03 11:24:23;;;;;;;5.65;4.63;;;;;;;28.88;39.81;97209.56;4825098;29;20175;-85
2023/10/03 11:26:53;;;;;;;5.85;4.53;;;;;;;29.02;39.37;97192.88;4832350;29;20209;-84
2023/10/03 11:29:38;;;;;;;8.50;4.55;;;;;;;29.00;40.34;97202.44;4811003;29;21853;-84
2023/10/03 11:32:04;;;;;;;5.10;4.28;;;;;;;29.00;38.77;97194.41;4847788;29;20235;-86
2023/10/03 11:34:35;;;;;;;10.15;4.80;;;;;;;28.63;40.62;97197.75;4844085;29;20213;-85
2023/10/03 11:37:03;;;;;;;5.75;4.43;;;;;;;28.07;40.74;97197.34;4815927;29;20371;-83
2023/10/03 11:39:36;;;;;;;4.88;4.32;;;;;;;27.68;41.47;97184.06;4821379;29;20183;-86
2023/10/03 11:42:25;;;;;;;5.90;5.00;;;;;;;26.98;43.76;97201.09;4813944;29;20202;-82
2023/10/03 11:44:58;;;;;;;6.07;5.00;;;;;;;26.68;45.33;97199.72;4826264;29;20611;-87
2023/10/03 11:47:24;;;;;;;6.47;4.50;;;;;;;26.66;44.15;97185.94;4849413;29;20259;-88